createdAt,value
2018-08-24T00:01:07.259Z,18.76
2018-08-24T00:06:15.931Z,18.63
2018-08-24T00:11:25.283Z,18.44
2018-08-24T00:16:34.101Z,18.31
2018-08-24T00:21:43.612Z,18.14
2018-08-24T00:26:52.518Z,17.98
2018-08-24T00:32:01.909Z,17.92
2018-08-24T00:37:10.911Z,17.83
2018-08-24T00:42:20.071Z,17.67
2018-08-24T00:47:29.174Z,17.50
2018-08-24T00:52:38.395Z,17.42
2018-08-24T00:57:47.532Z,17.29
2018-08-24T01:02:57.088Z,17.17
2018-08-24T01:08:06.760Z,17.16
2018-08-24T01:13:16.004Z,17.26
2018-08-24T01:18:25.355Z,17.14
2018-08-24T01:23:34.163Z,17.04
2018-08-24T01:28:43.661Z,16.98
2018-08-24T01:33:52.519Z,16.86
2018-08-24T01:39:01.623Z,16.80
2018-08-24T01:44:11.157Z,16.77
2018-08-24T01:49:20.029Z,16.73
2018-08-24T01:54:29.325Z,16.67
2018-08-24T01:59:38.500Z,16.73
2018-08-24T02:04:48.119Z,16.75
2018-08-24T02:09:57.376Z,16.71
2018-08-24T02:15:06.457Z,16.60
2018-08-24T02:20:15.909Z,16.54
2018-08-24T02:25:25.962Z,16.54
2018-08-24T02:30:34.923Z,16.51
2018-08-24T02:35:44.526Z,16.59
2018-08-24T02:40:54.065Z,16.66
2018-08-24T02:46:03.441Z,16.56
2018-08-24T02:51:12.164Z,16.51
2018-08-24T02:56:21.584Z,16.57
2018-08-24T03:01:31.014Z,16.64
2018-08-24T03:06:39.721Z,16.79
2018-08-24T03:11:49.328Z,16.73
2018-08-24T03:16:58.854Z,16.63
2018-08-24T03:22:07.644Z,16.65
2018-08-24T03:27:17.218Z,16.72
2018-08-24T03:32:26.821Z,16.72
2018-08-24T03:37:36.251Z,16.70
2018-08-24T03:42:45.520Z,16.57
2018-08-24T03:47:54.479Z,16.52
2018-08-24T03:53:03.842Z,16.60
2018-08-24T03:58:12.649Z,16.73
2018-08-24T04:03:22.725Z,16.96
2018-08-24T04:08:31.612Z,17.15
2018-08-24T04:13:40.840Z,17.50
2018-08-24T04:18:50.256Z,17.92
2018-08-24T04:23:59.581Z,18.24
2018-08-24T04:29:08.524Z,18.45
2018-08-24T04:34:18.125Z,18.81
2018-08-24T04:39:26.808Z,18.89
2018-08-24T04:44:37.371Z,18.97
2018-08-24T04:49:46.942Z,19.08
2018-08-24T04:54:56.751Z,19.23
2018-08-24T05:00:06.772Z,19.38
2018-08-24T05:05:15.933Z,19.56
2018-08-24T05:10:25.221Z,19.74
2018-08-24T05:15:34.112Z,19.75
2018-08-24T05:20:43.199Z,19.89
2018-08-24T05:25:52.081Z,20.26
2018-08-24T05:31:01.514Z,20.47
2018-08-24T05:36:10.840Z,20.47
2018-08-24T05:41:20.528Z,21.03
2018-08-24T05:46:29.795Z,20.87
2018-08-24T05:51:39.190Z,21.03
2018-08-24T05:56:48.095Z,21.25
2018-08-24T06:01:57.747Z,21.44
2018-08-24T06:07:06.941Z,21.29
2018-08-24T06:12:16.295Z,21.58
2018-08-24T06:17:25.550Z,22.10
2018-08-24T06:22:34.687Z,22.61
2018-08-24T06:27:44.109Z,22.35
2018-08-24T06:32:53.519Z,21.67
2018-08-24T06:38:02.361Z,21.69
2018-08-24T06:43:11.279Z,21.35
2018-08-24T06:48:20.366Z,21.50
2018-08-24T06:53:32.545Z,21.30
2018-08-24T06:58:42.382Z,21.44
2018-08-24T07:03:57.280Z,21.64
2018-08-24T07:09:06.676Z,21.65
2018-08-24T07:14:15.884Z,23.02
2018-08-24T07:19:24.792Z,23.51
2018-08-24T07:24:33.473Z,24.81
2018-08-24T07:29:42.731Z,24.25
2018-08-24T07:34:51.829Z,23.59
2018-08-24T07:40:06.919Z,23.64
2018-08-24T07:45:16.466Z,24.47
2018-08-24T07:50:25.087Z,23.05
2018-08-24T07:55:34.694Z,22.55
2018-08-24T08:00:43.504Z,21.96
2018-08-24T08:05:52.490Z,22.06
2018-08-24T08:11:01.467Z,22.23
2018-08-24T08:16:10.559Z,22.15
2018-08-24T08:21:19.307Z,22.38
2018-08-24T08:26:28.435Z,23.16
2018-08-24T08:31:37.132Z,23.84
2018-08-24T08:36:46.531Z,25.42
2018-08-24T08:41:55.933Z,25.67
2018-08-24T08:47:05.610Z,25.22
2018-08-24T08:52:14.730Z,25.49
2018-08-24T08:57:24.154Z,25.79
2018-08-24T09:02:33.635Z,25.86
2018-08-24T09:07:42.853Z,26.43
2018-08-24T09:12:51.719Z,26.48
2018-08-24T09:18:00.695Z,26.33
2018-08-24T09:23:10.228Z,25.88
2018-08-24T09:28:19.740Z,26.43
2018-08-24T09:33:28.325Z,26.39
2018-08-24T09:38:37.188Z,24.92
2018-08-24T09:43:46.475Z,26.49
2018-08-24T09:48:55.637Z,27.70
2018-08-24T09:54:04.866Z,27.20
2018-08-24T09:59:14.368Z,26.50
2018-08-24T10:04:23.399Z,24.57
2018-08-24T10:09:32.501Z,22.88
2018-08-24T10:14:41.703Z,21.71
2018-08-24T10:19:50.759Z,21.52
2018-08-24T10:25:00.011Z,21.78
2018-08-24T10:30:10.234Z,22.19
2018-08-24T10:35:19.096Z,22.20
2018-08-24T10:40:27.597Z,21.87
2018-08-24T10:45:37.138Z,21.51
2018-08-24T10:50:46.040Z,20.63
2018-08-24T10:55:55.635Z,20.37
2018-08-24T11:01:05.547Z,20.55
2018-08-24T11:06:15.692Z,20.45
2018-08-24T11:11:24.837Z,20.46
2018-08-24T11:16:34.176Z,19.89
2018-08-24T11:21:43.377Z,19.70
2018-08-24T11:26:52.320Z,19.47
2018-08-24T11:32:01.725Z,19.74
2018-08-24T11:37:10.607Z,20.61
2018-08-24T11:42:19.594Z,22.32
2018-08-24T11:47:28.603Z,23.45
2018-08-24T11:52:37.937Z,22.79
2018-08-24T11:57:46.760Z,22.61
2018-08-24T12:02:55.827Z,22.77
2018-08-24T12:08:04.859Z,24.17
2018-08-24T12:13:14.043Z,24.81
2018-08-24T12:18:23.190Z,25.02
2018-08-24T12:23:32.127Z,24.65
2018-08-24T12:28:41.261Z,24.98
2018-08-24T12:33:50.545Z,24.77
2018-08-24T12:38:59.971Z,23.72
2018-08-24T12:44:15.429Z,23.72
2018-08-24T12:49:25.393Z,22.93
2018-08-24T12:54:35.240Z,23.29
2018-08-24T12:59:44.369Z,23.59
2018-08-24T13:04:53.621Z,23.85
2018-08-24T13:10:02.756Z,23.57
2018-08-24T13:15:12.520Z,23.53
2018-08-24T13:20:22.317Z,23.36
2018-08-24T13:25:31.616Z,23.36
2018-08-24T13:30:41.117Z,23.98
2018-08-24T13:35:50.608Z,24.70
2018-08-24T13:40:59.434Z,24.82
2018-08-24T13:46:08.855Z,25.00
2018-08-24T13:51:18.206Z,25.82
2018-08-24T13:56:27.355Z,25.89
2018-08-24T14:01:37.190Z,25.09
2018-08-24T14:06:46.744Z,24.25
2018-08-24T14:11:55.781Z,24.62
2018-08-24T14:17:05.388Z,24.78
2018-08-24T14:22:14.717Z,25.63
2018-08-24T14:27:24.195Z,25.33
2018-08-24T14:32:33.222Z,24.99
2018-08-24T14:37:41.994Z,24.87
2018-08-24T14:42:51.448Z,24.58
2018-08-24T14:48:00.326Z,23.65
2018-08-24T14:53:09.509Z,23.35
2018-08-24T14:58:19.433Z,24.02
2018-08-24T15:03:28.893Z,25.14
2018-08-24T15:08:37.622Z,24.68
2018-08-24T15:13:47.156Z,24.18
2018-08-24T15:18:56.070Z,23.58
2018-08-24T15:24:05.823Z,23.10
2018-08-24T15:29:15.129Z,22.91
2018-08-24T15:34:24.444Z,22.32
2018-08-24T15:39:33.681Z,21.99
2018-08-24T15:44:42.292Z,21.37
2018-08-24T15:49:51.382Z,21.09
2018-08-24T15:55:01.063Z,21.09
2018-08-24T16:00:10.541Z,21.16
2018-08-24T16:05:21.094Z,21.22
2018-08-24T16:10:29.825Z,21.43
2018-08-24T16:15:39.396Z,21.01
2018-08-24T16:20:49.002Z,21.25
2018-08-24T16:25:58.265Z,21.55
2018-08-24T16:31:07.723Z,21.39
2018-08-24T16:36:16.952Z,21.38
2018-08-24T16:41:25.878Z,21.52
2018-08-24T16:46:35.486Z,21.40
2018-08-24T16:51:45.063Z,21.20
2018-08-24T16:56:54.630Z,21.14
2018-08-24T17:02:04.044Z,21.15
2018-08-24T17:07:12.922Z,20.94
2018-08-24T17:12:22.851Z,20.81
2018-08-24T17:17:32.071Z,20.53
2018-08-24T17:22:41.081Z,20.53
2018-08-24T17:27:50.331Z,20.28
2018-08-24T17:32:59.706Z,19.98
2018-08-24T17:38:09.004Z,19.90
2018-08-24T17:43:18.434Z,19.54
2018-08-24T17:48:27.788Z,19.45
2018-08-24T17:53:36.991Z,19.15
2018-08-24T17:58:45.784Z,19.12
2018-08-24T18:03:54.809Z,19.01
2018-08-24T18:09:07.130Z,18.90
2018-08-24T18:14:16.380Z,18.88
2018-08-24T18:19:25.636Z,18.60
2018-08-24T18:24:34.384Z,18.38
2018-08-24T18:29:45.063Z,18.30
2018-08-24T18:34:54.909Z,18.25
2018-08-24T18:40:04.815Z,18.13
2018-08-24T18:45:13.624Z,17.96
2018-08-24T18:50:23.564Z,17.94
2018-08-24T18:55:32.740Z,18.08
2018-08-24T19:00:42.396Z,17.99
2018-08-24T19:05:51.909Z,17.82
2018-08-24T19:11:01.146Z,17.70
2018-08-24T19:16:10.784Z,17.73
2018-08-24T19:21:20.302Z,17.76
2018-08-24T19:26:30.039Z,17.69
2018-08-24T19:31:39.093Z,17.62
2018-08-24T19:36:48.122Z,17.48
2018-08-24T19:41:57.411Z,17.36
2018-08-24T19:47:06.491Z,17.31
2018-08-24T19:52:15.824Z,17.24
2018-08-24T19:57:24.847Z,17.20
2018-08-24T20:02:33.916Z,17.22
2018-08-24T20:07:43.124Z,17.18
2018-08-24T20:12:52.540Z,17.18
2018-08-24T20:18:01.246Z,17.14
2018-08-24T20:23:10.227Z,17.11
2018-08-24T20:28:19.285Z,17.13
2018-08-24T20:33:28.722Z,17.16
2018-08-24T20:38:37.836Z,17.09
2018-08-24T20:43:46.956Z,17.16
2018-08-24T20:48:56.220Z,17.06
2018-08-24T20:54:05.562Z,16.98
2018-08-24T20:59:14.977Z,16.90
2018-08-24T21:04:24.700Z,16.87
2018-08-24T21:09:33.839Z,16.89
2018-08-24T21:14:42.968Z,16.87
2018-08-24T21:19:52.025Z,16.83
2018-08-24T21:25:01.358Z,16.74
2018-08-24T21:30:10.418Z,16.66
2018-08-24T21:35:19.943Z,16.63
2018-08-24T21:40:28.802Z,16.52
2018-08-24T21:45:38.012Z,16.58
2018-08-24T21:50:47.477Z,16.63
2018-08-24T21:55:56.639Z,16.80
2018-08-24T22:01:05.820Z,16.72
2018-08-24T22:06:15.061Z,16.70
2018-08-24T22:11:24.272Z,16.46
2018-08-24T22:16:33.964Z,16.22
2018-08-24T22:21:43.665Z,16.19
2018-08-24T22:26:52.985Z,16.20
2018-08-24T22:32:02.305Z,16.22
2018-08-24T22:37:11.621Z,16.30
2018-08-24T22:42:20.969Z,16.30
2018-08-24T22:47:30.036Z,16.39
2018-08-24T22:52:39.612Z,16.21
2018-08-24T22:57:48.475Z,16.37
2018-08-24T23:02:57.809Z,16.12
2018-08-24T23:08:06.839Z,15.90
2018-08-24T23:13:15.863Z,15.78
2018-08-24T23:18:25.173Z,15.90
2018-08-24T23:23:34.459Z,15.77
2018-08-24T23:28:43.548Z,15.61
2018-08-24T23:33:52.871Z,15.39
2018-08-24T23:39:02.079Z,15.24
2018-08-24T23:44:11.831Z,15.13
2018-08-24T23:49:22.480Z,15.08
2018-08-24T23:54:31.249Z,14.95
2018-08-24T23:59:40.422Z,14.90
